< Typhoon 196916 1969 Season Typhoon 196918 >
Typhoon 196917 (KATHY)
General InformationTrack Information on Google Maps || Disaster Info.ResourceGoogle EarthGE AnimationAtom FeedGeoJSON
Detalied Best Track (Time Zone = UTC)
Year Month Day Hour Lat. Long. Pressure (hPa) Wind (kt) Class Image Chart
1969 11 2 18 8.8 151.5 1006 0 2 -- Chart
1969 11 3 00 8.9 150.0 1004 0 2 -- Chart
1969 11 3 06 9.1 148.6 1002 0 2 -- Chart
1969 11 3 12 9.2 147.1 1000 0 2 -- Chart
1969 11 3 18 9.6 145.5 970 0 9 -- Chart
1969 11 4 00 9.9 144.2 970 0 9 -- Chart
1969 11 4 06 10.4 142.5 970 0 9 -- Chart
1969 11 4 12 10.7 141.5 970 0 9 -- Chart
1969 11 4 18 10.9 140.4 975 0 9 -- Chart
1969 11 5 00 11.8 138.9 975 0 9 -- Chart
1969 11 5 06 12.5 137.8 975 0 9 -- Chart
1969 11 5 12 12.9 136.9 980 0 9 -- Chart
1969 11 5 18 13.2 136.2 980 0 9 -- Chart
1969 11 6 00 13.4 135.2 980 0 9 -- Chart
1969 11 6 06 13.7 133.9 980 0 9 -- Chart
1969 11 6 12 14.1 132.6 975 0 9 -- Chart
1969 11 6 18 14.4 131.5 965 0 9 -- Chart
1969 11 7 00 14.9 130.7 955 0 9 -- Chart
1969 11 7 06 15.8 130.2 945 0 9 -- Chart
1969 11 7 12 17.1 129.9 935 0 9 -- Chart
1969 11 7 18 18.3 129.7 925 0 9 -- Chart
1969 11 8 00 19.8 129.8 930 0 9 -- Chart
1969 11 8 06 21.4 130.2 950 0 9 -- Chart
1969 11 8 12 23.4 131.6 970 0 9 -- Chart
1969 11 8 18 26.0 134.0 985 0 9 -- Chart
1969 11 9 00 28.3 136.5 990 0 9 -- Chart
1969 11 9 06 30.6 139.5 995 0 9 -- Chart
1969 11 9 12 32.8 143.8 995 0 9 -- Chart
1969 11 9 18 34.0 148.0 996 0 6 -- Chart
1969 11 10 00 34.1 152.2 998 0 6 -- Chart
1969 11 10 06 34.1 155.5 1002 0 6 -- Chart
1969 11 10 12 34.1 158.5 1002 0 6 -- Chart
1969 11 10 18 34.1 161.8 1004 0 6 -- Chart
1969 11 11 00 33.9 164.5 1006 0 6 -- Chart
1969 11 11 06 34.1 166.5 1006 0 6 -- Chart
1969 11 11 12 34.5 168.5 1006 0 6 -- Chart
1969 11 11 18 35.1 170.2 1006 0 6 -- Chart
1969 11 12 00 35.4 172.1 1008 0 6 -- Chart
1969 11 12 06 35.8 174.6 1006 0 6 -- Chart
1969 11 12 12 35.9 177.0 1008 0 6 -- Chart
1969 11 12 18 35.6 179.5 1006 0 6 -- Chart
1969 11 13 00 34.8 181.5 1004 0 6 -- Chart
Japan Meteorological Agency Best Track Data | Correction Date : 1991-07-16
< Typhoon 196916 1969 Season Typhoon 196918 >

Help